sensor_id;sensor_type;location;lat;lon;timestamp;temperature;humidity
39655;DHT22;25336;59.944;11.010;2023-04-25T00:02:01;4.00;80.50
39655;DHT22;25336;59.944;11.010;2023-04-25T00:04:27;4.00;80.50
39655;DHT22;25336;59.944;11.010;2023-04-25T00:06:54;4.00;80.80
39655;DHT22;25336;59.944;11.010;2023-04-25T00:09:19;4.00;80.70
39655;DHT22;25336;59.944;11.010;2023-04-25T00:11:45;4.00;80.60
39655;DHT22;25336;59.944;11.010;2023-04-25T00:14:11;3.40;81.20
39655;DHT22;25336;59.944;11.010;2023-04-25T00:16:36;4.00;80.80
39655;DHT22;25336;59.944;11.010;2023-04-25T00:19:02;4.00;80.70
39655;DHT22;25336;59.944;11.010;2023-04-25T00:21:28;4.00;80.60
39655;DHT22;25336;59.944;11.010;2023-04-25T00:23:55;4.00;80.80
39655;DHT22;25336;59.944;11.010;2023-04-25T00:26:21;5.30;81.50
39655;DHT22;25336;59.944;11.010;2023-04-25T00:28:47;4.00;80.70
39655;DHT22;25336;59.944;11.010;2023-04-25T00:31:14;4.00;80.70
39655;DHT22;25336;59.944;11.010;2023-04-25T00:33:40;4.70;81.20
39655;DHT22;25336;59.944;11.010;2023-04-25T00:36:06;4.00;80.70
39655;DHT22;25336;59.944;11.010;2023-04-25T00:38:32;4.00;80.70
39655;DHT22;25336;59.944;11.010;2023-04-25T00:40:57;4.10;80.80
39655;DHT22;25336;59.944;11.010;2023-04-25T00:43:26;3.40;80.30
39655;DHT22;25336;59.944;11.010;2023-04-25T00:45:52;4.00;80.60
39655;DHT22;25336;59.944;11.010;2023-04-25T00:48:18;5.00;81.10
39655;DHT22;25336;59.944;11.010;2023-04-25T00:50:54;4.10;80.60
39655;DHT22;25336;59.944;11.010;2023-04-25T00:53:21;4.00;80.50
39655;DHT22;25336;59.944;11.010;2023-04-25T00:55:47;4.40;80.80
39655;DHT22;25336;59.944;11.010;2023-04-25T00:58:13;4.00;80.50
39655;DHT22;25336;59.944;11.010;2023-04-25T01:00:40;5.30;81.30
39655;DHT22;25336;59.944;11.010;2023-04-25T01:03:06;4.00;80.50
39655;DHT22;25336;59.944;11.010;2023-04-25T01:05:31;5.70;81.50
39655;DHT22;25336;59.944;11.010;2023-04-25T01:07:57;4.00;80.40
39655;DHT22;25336;59.944;11.010;2023-04-25T01:10:23;4.00;80.30
39655;DHT22;25336;59.944;11.010;2023-04-25T01:12:49;4.10;80.40
39655;DHT22;25336;59.944;11.010;2023-04-25T01:15:15;4.00;80.30
39655;DHT22;25336;59.944;11.010;2023-04-25T01:17:41;4.90;80.90
39655;DHT22;25336;59.944;11.010;2023-04-25T01:20:08;4.40;80.60
39655;DHT22;25336;59.944;11.010;2023-04-25T01:22:35;3.90;80.30
39655;DHT22;25336;59.944;11.010;2023-04-25T01:25:00;3.90;80.20
39655;DHT22;25336;59.944;11.010;2023-04-25T01:27:27;3.90;80.20
39655;DHT22;25336;59.944;11.010;2023-04-25T01:29:54;3.90;80.30
39655;DHT22;25336;59.944;11.010;2023-04-25T01:32:20;3.90;80.30
39655;DHT22;25336;59.944;11.010;2023-04-25T01:34:46;3.90;80.30
39655;DHT22;25336;59.944;11.010;2023-04-25T01:37:12;3.90;80.40
39655;DHT22;25336;59.944;11.010;2023-04-25T01:39:38;3.90;80.40
39655;DHT22;25336;59.944;11.010;2023-04-25T01:42:04;3.90;80.60
39655;DHT22;25336;59.944;11.010;2023-04-25T01:44:30;3.90;80.60
39655;DHT22;25336;59.944;11.010;2023-04-25T01:46:55;4.90;81.20
39655;DHT22;25336;59.944;11.010;2023-04-25T01:49:21;3.90;80.50
39655;DHT22;25336;59.944;11.010;2023-04-25T01:51:47;3.80;80.60
39655;DHT22;25336;59.944;11.010;2023-04-25T01:54:13;3.90;80.50
39655;DHT22;25336;59.944;11.010;2023-04-25T01:56:39;3.30;80.20
39655;DHT22;25336;59.944;11.010;2023-04-25T01:59:05;3.80;80.60
39655;DHT22;25336;59.944;11.010;2023-04-25T02:01:31;5.10;81.50
39655;DHT22;25336;59.944;11.010;2023-04-25T02:03:57;3.80;80.70
39655;DHT22;25336;59.944;11.010;2023-04-25T02:06:25;3.80;80.80
39655;DHT22;25336;59.944;11.010;2023-04-25T02:08:50;4.90;81.30
39655;DHT22;25336;59.944;11.010;2023-04-25T02:11:16;4.80;81.20
39655;DHT22;25336;59.944;11.010;2023-04-25T02:13:41;3.80;80.50
39655;DHT22;25336;59.944;11.010;2023-04-25T02:16:07;3.80;80.60
39655;DHT22;25336;59.944;11.010;2023-04-25T02:18:33;3.80;80.70
39655;DHT22;25336;59.944;11.010;2023-04-25T02:20:59;3.80;80.80
39655;DHT22;25336;59.944;11.010;2023-04-25T02:23:26;3.70;80.70
39655;DHT22;25336;59.944;11.010;2023-04-25T02:25:52;3.70;80.70
39655;DHT22;25336;59.944;11.010;2023-04-25T02:28:18;3.70;80.80
39655;DHT22;25336;59.944;11.010;2023-04-25T02:30:43;3.70;80.90
39655;DHT22;25336;59.944;11.010;2023-04-25T02:33:09;2.90;80.20
39655;DHT22;25336;59.944;11.010;2023-04-25T02:35:35;3.70;80.80
39655;DHT22;25336;59.944;11.010;2023-04-25T02:38:01;3.70;80.80
39655;DHT22;25336;59.944;11.010;2023-04-25T02:40:27;3.70;80.80
39655;DHT22;25336;59.944;11.010;2023-04-25T02:42:53;4.10;81.10
39655;DHT22;25336;59.944;11.010;2023-04-25T02:45:18;3.70;80.90
39655;DHT22;25336;59.944;11.010;2023-04-25T02:47:44;3.70;80.90
39655;DHT22;25336;59.944;11.010;2023-04-25T02:50:10;3.70;81.00
39655;DHT22;25336;59.944;11.010;2023-04-25T02:52:35;3.70;81.00
39655;DHT22;25336;59.944;11.010;2023-04-25T02:55:01;3.70;81.00
39655;DHT22;25336;59.944;11.010;2023-04-25T02:57:26;3.70;81.00
39655;DHT22;25336;59.944;11.010;2023-04-25T02:59:52;3.70;80.90
39655;DHT22;25336;59.944;11.010;2023-04-25T03:02:18;3.70;80.80
39655;DHT22;25336;59.944;11.010;2023-04-25T03:04:43;3.70;80.90
39655;DHT22;25336;59.944;11.010;2023-04-25T03:07:09;3.70;80.70
39655;DHT22;25336;59.944;11.010;2023-04-25T03:09:35;3.70;80.80
39655;DHT22;25336;59.944;11.010;2023-04-25T03:12:01;3.70;80.80
39655;DHT22;25336;59.944;11.010;2023-04-25T03:14:26;3.40;80.60
39655;DHT22;25336;59.944;11.010;2023-04-25T03:16:52;3.70;80.80
39655;DHT22;25336;59.944;11.010;2023-04-25T03:19:18;4.20;81.80
39655;DHT22;25336;59.944;11.010;2023-04-25T03:21:44;3.70;80.70
39655;DHT22;25336;59.944;11.010;2023-04-25T03:24:10;3.70;80.70
39655;DHT22;25336;59.944;11.010;2023-04-25T03:26:36;3.60;80.60
39655;DHT22;25336;59.944;11.010;2023-04-25T03:29:02;4.90;82.20
39655;DHT22;25336;59.944;11.010;2023-04-25T03:31:28;3.60;80.60
39655;DHT22;25336;59.944;11.010;2023-04-25T03:33:53;3.60;80.60
39655;DHT22;25336;59.944;11.010;2023-04-25T03:36:19;3.60;80.60
39655;DHT22;25336;59.944;11.010;2023-04-25T03:38:44;3.60;80.70
39655;DHT22;25336;59.944;11.010;2023-04-25T03:41:10;3.60;80.90
39655;DHT22;25336;59.944;11.010;2023-04-25T03:43:36;3.60;80.90
39655;DHT22;25336;59.944;11.010;2023-04-25T03:46:03;3.60;80.90
39655;DHT22;25336;59.944;11.010;2023-04-25T03:48:28;3.50;80.90
39655;DHT22;25336;59.944;11.010;2023-04-25T03:50:54;3.50;80.90
39655;DHT22;25336;59.944;11.010;2023-04-25T03:53:20;3.50;80.90
39655;DHT22;25336;59.944;11.010;2023-04-25T03:55:46;3.50;81.00
39655;DHT22;25336;59.944;11.010;2023-04-25T03:58:11;3.50;80.90
39655;DHT22;25336;59.944;11.010;2023-04-25T04:00:37;3.50;80.70
39655;DHT22;25336;59.944;11.010;2023-04-25T04:03:02;3.50;80.70
39655;DHT22;25336;59.944;11.010;2023-04-25T04:05:28;3.40;80.60
39655;DHT22;25336;59.944;11.010;2023-04-25T04:07:54;2.60;80.20
39655;DHT22;25336;59.944;11.010;2023-04-25T04:10:20;3.40;80.90
39655;DHT22;25336;59.944;11.010;2023-04-25T04:12:46;3.40;81.00
39655;DHT22;25336;59.944;11.010;2023-04-25T04:15:11;3.40;80.90
39655;DHT22;25336;59.944;11.010;2023-04-25T04:17:37;3.40;80.90
39655;DHT22;25336;59.944;11.010;2023-04-25T04:20:03;3.50;81.10
39655;DHT22;25336;59.944;11.010;2023-04-25T04:22:29;3.60;81.20
39655;DHT22;25336;59.944;11.010;2023-04-25T04:24:55;4.20;81.70
39655;DHT22;25336;59.944;11.010;2023-04-25T04:27:22;4.10;81.60
39655;DHT22;25336;59.944;11.010;2023-04-25T04:29:48;4.10;81.70
39655;DHT22;25336;59.944;11.010;2023-04-25T04:32:15;3.30;81.20
39655;DHT22;25336;59.944;11.010;2023-04-25T04:34:41;4.10;81.90
39655;DHT22;25336;59.944;11.010;2023-04-25T04:37:07;3.80;81.60
39655;DHT22;25336;59.944;11.010;2023-04-25T04:39:36;4.40;82.00
39655;DHT22;25336;59.944;11.010;2023-04-25T04:42:02;4.10;82.00
39655;DHT22;25336;59.944;11.010;2023-04-25T04:44:29;3.30;81.60
39655;DHT22;25336;59.944;11.010;2023-04-25T04:46:58;3.30;81.50
39655;DHT22;25336;59.944;11.010;2023-04-25T04:49:24;3.70;81.70
39655;DHT22;25336;59.944;11.010;2023-04-25T04:51:49;3.30;81.50
39655;DHT22;25336;59.944;11.010;2023-04-25T04:54:15;3.30;81.60
39655;DHT22;25336;59.944;11.010;2023-04-25T04:56:41;3.30;81.50
39655;DHT22;25336;59.944;11.010;2023-04-25T04:59:07;3.30;81.50
39655;DHT22;25336;59.944;11.010;2023-04-25T05:01:33;3.30;81.60
39655;DHT22;25336;59.944;11.010;2023-04-25T05:04:01;3.30;81.60
39655;DHT22;25336;59.944;11.010;2023-04-25T05:06:28;3.30;81.70
39655;DHT22;25336;59.944;11.010;2023-04-25T05:08:57;3.30;81.70
39655;DHT22;25336;59.944;11.010;2023-04-25T05:11:26;3.20;81.70
39655;DHT22;25336;59.944;11.010;2023-04-25T05:13:52;3.30;81.70
39655;DHT22;25336;59.944;11.010;2023-04-25T05:16:18;3.30;81.60
39655;DHT22;25336;59.944;11.010;2023-04-25T05:18:43;3.30;81.60
39655;DHT22;25336;59.944;11.010;2023-04-25T05:21:09;3.30;81.70
39655;DHT22;25336;59.944;11.010;2023-04-25T05:23:35;3.30;81.50
39655;DHT22;25336;59.944;11.010;2023-04-25T05:26:00;3.30;81.60
39655;DHT22;25336;59.944;11.010;2023-04-25T05:28:26;3.30;81.60
39655;DHT22;25336;59.944;11.010;2023-04-25T05:30:52;3.30;81.70
39655;DHT22;25336;59.944;11.010;2023-04-25T05:33:17;4.30;82.30
39655;DHT22;25336;59.944;11.010;2023-04-25T05:35:44;4.30;82.20
39655;DHT22;25336;59.944;11.010;2023-04-25T05:38:10;3.80;81.90
39655;DHT22;25336;59.944;11.010;2023-04-25T05:40:36;4.20;82.10
39655;DHT22;25336;59.944;11.010;2023-04-25T05:43:02;3.30;81.50
39655;DHT22;25336;59.944;11.010;2023-04-25T05:45:28;3.70;81.90
39655;DHT22;25336;59.944;11.010;2023-04-25T05:47:53;3.40;81.60
39655;DHT22;25336;59.944;11.010;2023-04-25T05:50:19;3.30;81.50
39655;DHT22;25336;59.944;11.010;2023-04-25T05:52:44;3.40;81.60
39655;DHT22;25336;59.944;11.010;2023-04-25T05:55:10;3.40;81.60
39655;DHT22;25336;59.944;11.010;2023-04-25T05:57:35;3.30;81.50
39655;DHT22;25336;59.944;11.010;2023-04-25T06:00:02;3.40;81.60
39655;DHT22;25336;59.944;11.010;2023-04-25T06:02:28;3.40;81.60
39655;DHT22;25336;59.944;11.010;2023-04-25T06:04:54;3.40;81.60
39655;DHT22;25336;59.944;11.010;2023-04-25T06:07:22;4.10;82.20
39655;DHT22;25336;59.944;11.010;2023-04-25T06:09:49;3.40;81.80
39655;DHT22;25336;59.944;11.010;2023-04-25T06:12:15;4.40;82.40
39655;DHT22;25336;59.944;11.010;2023-04-25T06:14:40;4.20;82.30
39655;DHT22;25336;59.944;11.010;2023-04-25T06:17:06;3.40;81.80
39655;DHT22;25336;59.944;11.010;2023-04-25T06:19:34;3.40;81.80
39655;DHT22;25336;59.944;11.010;2023-04-25T06:22:00;3.40;81.90
39655;DHT22;25336;59.944;11.010;2023-04-25T06:24:25;3.40;81.90
39655;DHT22;25336;59.944;11.010;2023-04-25T06:26:51;3.50;81.90
39655;DHT22;25336;59.944;11.010;2023-04-25T06:29:18;3.50;81.80
39655;DHT22;25336;59.944;11.010;2023-04-25T06:31:43;3.50;81.70
39655;DHT22;25336;59.944;11.010;2023-04-25T06:34:09;3.50;81.70
39655;DHT22;25336;59.944;11.010;2023-04-25T06:36:34;3.50;81.70
39655;DHT22;25336;59.944;11.010;2023-04-25T06:39:01;3.50;81.70
39655;DHT22;25336;59.944;11.010;2023-04-25T06:41:27;3.50;81.60
39655;DHT22;25336;59.944;11.010;2023-04-25T06:43:53;3.50;81.50
39655;DHT22;25336;59.944;11.010;2023-04-25T06:46:18;3.50;81.60
39655;DHT22;25336;59.944;11.010;2023-04-25T06:48:44;3.50;81.50
39655;DHT22;25336;59.944;11.010;2023-04-25T06:51:10;3.50;81.50
39655;DHT22;25336;59.944;11.010;2023-04-25T06:53:35;3.50;81.40
39655;DHT22;25336;59.944;11.010;2023-04-25T06:56:01;3.10;81.20
39655;DHT22;25336;59.944;11.010;2023-04-25T06:58:27;3.60;81.60
39655;DHT22;25336;59.944;11.010;2023-04-25T07:00:53;4.30;81.90
39655;DHT22;25336;59.944;11.010;2023-04-25T07:03:19;3.60;81.40
39655;DHT22;25336;59.944;11.010;2023-04-25T07:05:45;3.60;81.50
39655;DHT22;25336;59.944;11.010;2023-04-25T07:08:11;4.20;81.80
39655;DHT22;25336;59.944;11.010;2023-04-25T07:10:37;3.60;81.60
39655;DHT22;25336;59.944;11.010;2023-04-25T07:13:02;4.70;82.20
39655;DHT22;25336;59.944;11.010;2023-04-25T07:15:28;3.60;81.40
39655;DHT22;25336;59.944;11.010;2023-04-25T07:17:53;3.60;81.30
39655;DHT22;25336;59.944;11.010;2023-04-25T07:20:19;4.70;82.00
39655;DHT22;25336;59.944;11.010;2023-04-25T07:22:45;3.60;81.40
39655;DHT22;25336;59.944;11.010;2023-04-25T07:25:11;3.60;81.40
39655;DHT22;25336;59.944;11.010;2023-04-25T07:27:36;4.10;81.70
39655;DHT22;25336;59.944;11.010;2023-04-25T07:30:03;3.70;81.30
39655;DHT22;25336;59.944;11.010;2023-04-25T07:32:29;3.70;81.40
39655;DHT22;25336;59.944;11.010;2023-04-25T07:34:55;3.60;81.30
39655;DHT22;25336;59.944;11.010;2023-04-25T07:37:20;3.60;81.20
39655;DHT22;25336;59.944;11.010;2023-04-25T07:39:46;4.60;81.70
39655;DHT22;25336;59.944;11.010;2023-04-25T07:42:12;3.60;81.10
39655;DHT22;25336;59.944;11.010;2023-04-25T07:44:38;3.70;81.10
39655;DHT22;25336;59.944;11.010;2023-04-25T07:47:06;3.60;81.10
39655;DHT22;25336;59.944;11.010;2023-04-25T07:49:36;3.70;81.20
39655;DHT22;25336;59.944;11.010;2023-04-25T07:52:02;3.70;81.20
39655;DHT22;25336;59.944;11.010;2023-04-25T07:54:28;4.20;81.40
39655;DHT22;25336;59.944;11.010;2023-04-25T07:56:54;3.70;81.10
39655;DHT22;25336;59.944;11.010;2023-04-25T07:59:20;3.70;81.10
39655;DHT22;25336;59.944;11.010;2023-04-25T08:01:46;4.30;81.50
39655;DHT22;25336;59.944;11.010;2023-04-25T08:04:11;3.60;81.10
39655;DHT22;25336;59.944;11.010;2023-04-25T08:06:37;3.70;81.20
39655;DHT22;25336;59.944;11.010;2023-04-25T08:09:03;3.70;81.20
39655;DHT22;25336;59.944;11.010;2023-04-25T08:11:29;3.70;81.30
39655;DHT22;25336;59.944;11.010;2023-04-25T08:13:55;3.70;80.80
39655;DHT22;25336;59.944;11.010;2023-04-25T08:16:21;4.90;82.20
39655;DHT22;25336;59.944;11.010;2023-04-25T08:18:47;3.70;81.40
39655;DHT22;25336;59.944;11.010;2023-04-25T08:21:12;3.70;81.20
39655;DHT22;25336;59.944;11.010;2023-04-25T08:23:38;3.70;81.20
39655;DHT22;25336;59.944;11.010;2023-04-25T08:26:04;3.70;81.10
39655;DHT22;25336;59.944;11.010;2023-04-25T08:28:31;3.70;81.10
39655;DHT22;25336;59.944;11.010;2023-04-25T08:30:56;4.20;81.50
39655;DHT22;25336;59.944;11.010;2023-04-25T08:33:22;3.70;81.30
39655;DHT22;25336;59.944;11.010;2023-04-25T08:35:48;3.70;81.30
39655;DHT22;25336;59.944;11.010;2023-04-25T08:38:14;3.40;81.10
39655;DHT22;25336;59.944;11.010;2023-04-25T08:40:40;3.80;81.30
39655;DHT22;25336;59.944;11.010;2023-04-25T08:43:07;3.80;81.20
39655;DHT22;25336;59.944;11.010;2023-04-25T08:45:40;3.80;81.00
39655;DHT22;25336;59.944;11.010;2023-04-25T08:48:11;3.80;80.90
39655;DHT22;25336;59.944;11.010;2023-04-25T08:50:49;4.70;81.50
39655;DHT22;25336;59.944;11.010;2023-04-25T08:53:17;3.80;80.80
39655;DHT22;25336;59.944;11.010;2023-04-25T08:55:46;3.80;80.70
39655;DHT22;25336;59.944;11.010;2023-04-25T08:58:12;3.80;80.80
39655;DHT22;25336;59.944;11.010;2023-04-25T09:00:39;3.80;80.80
39655;DHT22;25336;59.944;11.010;2023-04-25T09:03:05;3.80;80.90
39655;DHT22;25336;59.944;11.010;2023-04-25T09:05:33;3.80;81.00
39655;DHT22;25336;59.944;11.010;2023-04-25T09:07:58;3.70;81.00
39655;DHT22;25336;59.944;11.010;2023-04-25T09:10:26;3.80;81.10
39655;DHT22;25336;59.944;11.010;2023-04-25T09:13:08;3.80;81.10
39655;DHT22;25336;59.944;11.010;2023-04-25T09:15:50;3.80;81.10
39655;DHT22;25336;59.944;11.010;2023-04-25T09:18:30;3.80;81.20
39655;DHT22;25336;59.944;11.010;2023-04-25T09:20:58;3.80;80.80
39655;DHT22;25336;59.944;11.010;2023-04-25T09:23:45;4.60;81.60
39655;DHT22;25336;59.944;11.010;2023-04-25T09:26:18;3.90;81.10
39655;DHT22;25336;59.944;11.010;2023-04-25T09:28:44;3.90;81.00
39655;DHT22;25336;59.944;11.010;2023-04-25T09:31:11;4.40;81.20
39655;DHT22;25336;59.944;11.010;2023-04-25T09:33:38;3.90;81.10
39655;DHT22;25336;59.944;11.010;2023-04-25T09:36:06;3.90;81.20
39655;DHT22;25336;59.944;11.010;2023-04-25T09:38:44;3.90;81.10
39655;DHT22;25336;59.944;11.010;2023-04-25T09:41:11;3.90;81.20
39655;DHT22;25336;59.944;11.010;2023-04-25T09:43:37;4.30;81.40
39655;DHT22;25336;59.944;11.010;2023-04-25T09:46:09;4.00;81.30
39655;DHT22;25336;59.944;11.010;2023-04-25T09:48:37;4.00;81.20
39655;DHT22;25336;59.944;11.010;2023-04-25T09:51:10;4.00;81.10
39655;DHT22;25336;59.944;11.010;2023-04-25T09:53:38;4.10;81.00
39655;DHT22;25336;59.944;11.010;2023-04-25T09:56:06;4.10;80.90
39655;DHT22;25336;59.944;11.010;2023-04-25T09:58:33;4.10;80.70
39655;DHT22;25336;59.944;11.010;2023-04-25T10:01:01;4.10;80.60
39655;DHT22;25336;59.944;11.010;2023-04-25T10:03:30;4.10;80.60
39655;DHT22;25336;59.944;11.010;2023-04-25T10:05:59;4.10;80.80
39655;DHT22;25336;59.944;11.010;2023-04-25T10:08:26;4.10;80.90
39655;DHT22;25336;59.944;11.010;2023-04-25T10:10:53;4.10;80.90
39655;DHT22;25336;59.944;11.010;2023-04-25T10:13:18;4.20;80.90
39655;DHT22;25336;59.944;11.010;2023-04-25T10:15:45;4.20;80.90
39655;DHT22;25336;59.944;11.010;2023-04-25T10:18:12;4.20;80.70
39655;DHT22;25336;59.944;11.010;2023-04-25T10:20:38;4.90;81.10
39655;DHT22;25336;59.944;11.010;2023-04-25T10:23:13;4.20;80.50
39655;DHT22;25336;59.944;11.010;2023-04-25T10:25:41;4.20;80.40
39655;DHT22;25336;59.944;11.010;2023-04-25T10:28:07;4.20;80.30
39655;DHT22;25336;59.944;11.010;2023-04-25T10:30:33;5.40;81.30
39655;DHT22;25336;59.944;11.010;2023-04-25T10:32:59;4.20;80.80
39655;DHT22;25336;59.944;11.010;2023-04-25T10:35:27;4.20;80.80
39655;DHT22;25336;59.944;11.010;2023-04-25T10:38:09;4.30;80.90
39655;DHT22;25336;59.944;11.010;2023-04-25T10:40:34;4.30;81.00
39655;DHT22;25336;59.944;11.010;2023-04-25T10:45:59;4.40;80.90
39655;DHT22;25336;59.944;11.010;2023-04-25T10:48:26;4.50;81.10
39655;DHT22;25336;59.944;11.010;2023-04-25T10:51:07;4.50;81.10
39655;DHT22;25336;59.944;11.010;2023-04-25T10:53:33;5.30;81.50
39655;DHT22;25336;59.944;11.010;2023-04-25T10:55:59;4.60;80.90
39655;DHT22;25336;59.944;11.010;2023-04-25T10:58:26;4.70;80.90
39655;DHT22;25336;59.944;11.010;2023-04-25T11:00:51;5.70;81.40
39655;DHT22;25336;59.944;11.010;2023-04-25T11:03:17;4.70;80.80
39655;DHT22;25336;59.944;11.010;2023-04-25T11:05:47;5.60;81.30
39655;DHT22;25336;59.944;11.010;2023-04-25T11:08:17;4.80;80.80
39655;DHT22;25336;59.944;11.010;2023-04-25T11:10:47;4.90;80.50
39655;DHT22;25336;59.944;11.010;2023-04-25T11:13:12;4.90;80.30
39655;DHT22;25336;59.944;11.010;2023-04-25T11:15:38;5.00;80.20
39655;DHT22;25336;59.944;11.010;2023-04-25T11:18:04;5.70;80.40
39655;DHT22;25336;59.944;11.010;2023-04-25T11:20:29;5.10;80.00
39655;DHT22;25336;59.944;11.010;2023-04-25T11:22:57;5.10;79.70
39655;DHT22;25336;59.944;11.010;2023-04-25T11:25:25;5.10;79.70
39655;DHT22;25336;59.944;11.010;2023-04-25T11:30:21;5.20;79.40
39655;DHT22;25336;59.944;11.010;2023-04-25T11:32:47;5.20;79.40
39655;DHT22;25336;59.944;11.010;2023-04-25T11:35:13;5.20;79.40
39655;DHT22;25336;59.944;11.010;2023-04-25T11:37:40;5.20;79.10
39655;DHT22;25336;59.944;11.010;2023-04-25T11:40:06;5.30;79.30
39655;DHT22;25336;59.944;11.010;2023-04-25T11:42:34;5.30;79.30
39655;DHT22;25336;59.944;11.010;2023-04-25T11:45:00;5.30;79.30
39655;DHT22;25336;59.944;11.010;2023-04-25T11:47:33;5.50;79.20
39655;DHT22;25336;59.944;11.010;2023-04-25T11:49:59;5.30;78.50
39655;DHT22;25336;59.944;11.010;2023-04-25T11:52:39;5.30;78.70
39655;DHT22;25336;59.944;11.010;2023-04-25T11:55:16;5.30;78.70
39655;DHT22;25336;59.944;11.010;2023-04-25T11:57:44;5.30;78.50
39655;DHT22;25336;59.944;11.010;2023-04-25T12:00:13;6.00;79.70
39655;DHT22;25336;59.944;11.010;2023-04-25T12:02:43;5.20;78.50
39655;DHT22;25336;59.944;11.010;2023-04-25T12:05:11;5.20;78.80
39655;DHT22;25336;59.944;11.010;2023-04-25T12:07:37;5.90;79.20
39655;DHT22;25336;59.944;11.010;2023-04-25T12:10:07;5.20;78.60
39655;DHT22;25336;59.944;11.010;2023-04-25T12:12:34;5.20;78.70
39655;DHT22;25336;59.944;11.010;2023-04-25T12:15:29;6.40;79.50
39655;DHT22;25336;59.944;11.010;2023-04-25T12:17:55;5.20;78.20
39655;DHT22;25336;59.944;11.010;2023-04-25T12:20:25;6.00;78.70
39655;DHT22;25336;59.944;11.010;2023-04-25T12:22:51;5.20;77.90
39655;DHT22;25336;59.944;11.010;2023-04-25T12:25:37;5.20;78.30
39655;DHT22;25336;59.944;11.010;2023-04-25T12:33:23;5.10;78.20
39655;DHT22;25336;59.944;11.010;2023-04-25T12:35:49;6.10;79.20
39655;DHT22;25336;59.944;11.010;2023-04-25T12:38:24;5.10;79.30
39655;DHT22;25336;59.944;11.010;2023-04-25T12:40:50;5.20;78.40
39655;DHT22;25336;59.944;11.010;2023-04-25T12:43:16;6.30;79.00
39655;DHT22;25336;59.944;11.010;2023-04-25T12:45:43;5.20;78.10
39655;DHT22;25336;59.944;11.010;2023-04-25T12:48:09;5.20;78.40
39655;DHT22;25336;59.944;11.010;2023-04-25T12:50:35;5.20;78.20
39655;DHT22;25336;59.944;11.010;2023-04-25T12:53:00;5.20;78.10
39655;DHT22;25336;59.944;11.010;2023-04-25T12:55:26;5.30;78.30
39655;DHT22;25336;59.944;11.010;2023-04-25T12:57:52;5.30;78.10
39655;DHT22;25336;59.944;11.010;2023-04-25T13:00:17;5.30;78.10
39655;DHT22;25336;59.944;11.010;2023-04-25T13:02:45;5.30;78.00
39655;DHT22;25336;59.944;11.010;2023-04-25T13:05:12;5.30;77.70
39655;DHT22;25336;59.944;11.010;2023-04-25T13:07:38;5.30;77.60
39655;DHT22;25336;59.944;11.010;2023-04-25T13:10:04;5.30;77.80
39655;DHT22;25336;59.944;11.010;2023-04-25T13:12:31;4.70;77.40
39655;DHT22;25336;59.944;11.010;2023-04-25T13:14:57;5.30;77.70
39655;DHT22;25336;59.944;11.010;2023-04-25T13:17:22;5.00;77.60
39655;DHT22;25336;59.944;11.010;2023-04-25T13:19:48;5.30;77.70
39655;DHT22;25336;59.944;11.010;2023-04-25T13:22:13;5.30;77.80
39655;DHT22;25336;59.944;11.010;2023-04-25T13:24:40;5.30;77.80
39655;DHT22;25336;59.944;11.010;2023-04-25T13:27:06;5.30;77.90
39655;DHT22;25336;59.944;11.010;2023-04-25T13:29:32;5.30;77.90
39655;DHT22;25336;59.944;11.010;2023-04-25T13:32:00;5.50;78.00
39655;DHT22;25336;59.944;11.010;2023-04-25T13:34:26;5.30;77.90
39655;DHT22;25336;59.944;11.010;2023-04-25T13:36:51;5.30;77.70
39655;DHT22;25336;59.944;11.010;2023-04-25T13:39:17;5.30;77.40
39655;DHT22;25336;59.944;11.010;2023-04-25T13:41:43;5.30;77.60
39655;DHT22;25336;59.944;11.010;2023-04-25T13:44:10;5.90;78.10
39655;DHT22;25336;59.944;11.010;2023-04-25T13:46:35;6.00;78.10
39655;DHT22;25336;59.944;11.010;2023-04-25T13:49:05;5.30;78.00
39655;DHT22;25336;59.944;11.010;2023-04-25T13:51:31;5.30;78.20
39655;DHT22;25336;59.944;11.010;2023-04-25T13:53:57;6.50;78.90
39655;DHT22;25336;59.944;11.010;2023-04-25T13:56:22;5.40;78.20
39655;DHT22;25336;59.944;11.010;2023-04-25T13:58:50;6.30;78.60
39655;DHT22;25336;59.944;11.010;2023-04-25T14:01:15;5.40;77.70
39655;DHT22;25336;59.944;11.010;2023-04-25T14:03:41;6.30;78.50
39655;DHT22;25336;59.944;11.010;2023-04-25T14:06:07;6.40;78.70
39655;DHT22;25336;59.944;11.010;2023-04-25T14:08:34;5.50;77.90
39655;DHT22;25336;59.944;11.010;2023-04-25T14:11:00;5.60;77.70
39655;DHT22;25336;59.944;11.010;2023-04-25T14:13:26;6.00;77.70
39655;DHT22;25336;59.944;11.010;2023-04-25T14:15:52;5.90;77.60
39655;DHT22;25336;59.944;11.010;2023-04-25T14:18:18;5.50;77.40
39655;DHT22;25336;59.944;11.010;2023-04-25T14:20:44;6.40;78.00
39655;DHT22;25336;59.944;11.010;2023-04-25T14:23:10;5.50;77.30
39655;DHT22;25336;59.944;11.010;2023-04-25T14:25:35;5.60;77.30
39655;DHT22;25336;59.944;11.010;2023-04-25T14:28:02;6.40;77.60
39655;DHT22;25336;59.944;11.010;2023-04-25T14:30:27;5.60;77.30
39655;DHT22;25336;59.944;11.010;2023-04-25T14:32:53;5.60;77.40
39655;DHT22;25336;59.944;11.010;2023-04-25T14:35:19;5.60;77.60
39655;DHT22;25336;59.944;11.010;2023-04-25T14:37:45;5.90;77.80
39655;DHT22;25336;59.944;11.010;2023-04-25T14:40:11;5.80;77.40
39655;DHT22;25336;59.944;11.010;2023-04-25T14:42:41;5.60;76.50
39655;DHT22;25336;59.944;11.010;2023-04-25T14:45:08;5.70;76.60
39655;DHT22;25336;59.944;11.010;2023-04-25T14:47:37;5.70;76.80
39655;DHT22;25336;59.944;11.010;2023-04-25T14:50:03;5.70;77.00
39655;DHT22;25336;59.944;11.010;2023-04-25T14:52:30;5.70;76.90
39655;DHT22;25336;59.944;11.010;2023-04-25T14:54:56;5.70;76.90
39655;DHT22;25336;59.944;11.010;2023-04-25T14:57:22;5.70;76.90
39655;DHT22;25336;59.944;11.010;2023-04-25T14:59:47;5.70;76.70
39655;DHT22;25336;59.944;11.010;2023-04-25T15:02:13;5.70;76.70
39655;DHT22;25336;59.944;11.010;2023-04-25T15:04:38;6.20;77.10
39655;DHT22;25336;59.944;11.010;2023-04-25T15:07:04;5.80;76.40
39655;DHT22;25336;59.944;11.010;2023-04-25T15:09:30;5.80;76.50
39655;DHT22;25336;59.944;11.010;2023-04-25T15:11:57;5.80;76.50
39655;DHT22;25336;59.944;11.010;2023-04-25T15:14:23;5.70;76.50
39655;DHT22;25336;59.944;11.010;2023-04-25T15:16:49;5.70;76.50
39655;DHT22;25336;59.944;11.010;2023-04-25T15:19:15;5.80;76.50
39655;DHT22;25336;59.944;11.010;2023-04-25T15:21:41;7.00;77.60
39655;DHT22;25336;59.944;11.010;2023-04-25T15:24:07;5.80;76.60
39655;DHT22;25336;59.944;11.010;2023-04-25T15:26:33;5.80;76.40
39655;DHT22;25336;59.944;11.010;2023-04-25T15:28:58;6.60;76.90
39655;DHT22;25336;59.944;11.010;2023-04-25T15:31:24;5.80;76.10
39655;DHT22;25336;59.944;11.010;2023-04-25T15:33:49;5.70;76.10
39655;DHT22;25336;59.944;11.010;2023-04-25T15:36:15;5.80;76.10
39655;DHT22;25336;59.944;11.010;2023-04-25T15:38:42;6.40;76.60